Time;durP1;ratioP1;P1;durP2;ratioP2;P2;SDS_P1;SDS_P2;PMS_P1;PMS_P2;Temp;Humidity;BMP_temperature;BMP_pressure;BME280_temperature;BME280_humidity;BME280_pressure;Samples;Min_cycle;Max_cycle;Signal;HPM_P1;HPM_P2
2023/10/22 00:00:44;;;;;;;7.50;7.20;;;13.60;36.00;;;;;;6152544;23;20181;-61
2023/10/22 00:03:10;;;;;;;7.97;7.57;;;13.60;35.90;;;;;;6152342;23;20203;-61
2023/10/22 00:05:36;;;;;;;8.93;8.30;;;13.60;36.00;;;;;;6152700;23;20858;-60
2023/10/22 00:08:01;;;;;;;7.50;7.10;;;13.50;36.10;;;;;;6152567;23;20165;-60
2023/10/22 00:10:27;;;;;;;7.43;7.03;;;13.50;36.10;;;;;;6152827;23;20552;-61
2023/10/22 00:12:53;;;;;;;8.77;8.37;;;13.50;36.20;;;;;;6152677;23;20587;-62
2023/10/22 00:15:20;;;;;;;8.30;7.80;;;13.50;36.00;;;;;;6152907;23;20157;-61
2023/10/22 00:17:46;;;;;;;7.60;7.20;;;13.50;35.80;;;;;;6152528;23;20395;-60
2023/10/22 00:20:13;;;;;;;8.27;7.87;;;13.50;35.80;;;;;;6152704;23;20421;-61
2023/10/22 00:22:39;;;;;;;7.50;7.10;;;13.50;35.90;;;;;;6152871;23;20696;-57
2023/10/22 00:25:05;;;;;;;7.53;7.13;;;13.50;35.70;;;;;;6143015;23;20953;-76
2023/10/22 00:27:34;;;;;;;7.27;6.97;;;13.50;35.70;;;;;;6127939;23;20381;-76
2023/10/22 00:30:00;;;;;;;8.50;8.00;;;13.40;36.10;;;;;;6123588;23;20373;-76
2023/10/22 00:32:26;;;;;;;8.37;7.97;;;13.40;35.90;;;;;;6124969;23;20405;-76
2023/10/22 00:34:52;;;;;;;7.90;7.50;;;13.40;35.90;;;;;;6124429;23;20398;-76
2023/10/22 00:37:17;;;;;;;7.70;7.40;;;13.40;36.00;;;;;;6123749;23;20381;-76
2023/10/22 00:39:43;;;;;;;7.80;7.40;;;13.40;36.00;;;;;;6125343;23;20178;-76
2023/10/22 00:42:09;;;;;;;7.20;6.90;;;13.40;35.80;;;;;;6125742;23;20150;-75
2023/10/22 00:44:35;;;;;;;7.67;7.33;;;13.40;35.60;;;;;;6125271;23;20639;-76
2023/10/22 00:47:05;;;;;;;8.80;8.10;;;13.40;35.70;;;;;;6125769;23;20384;-76
2023/10/22 00:49:31;;;;;;;6.80;6.60;;;13.40;35.40;;;;;;6123999;23;20459;-76
2023/10/22 00:51:57;;;;;;;7.87;7.30;;;13.30;35.80;;;;;;6125139;23;20382;-76
2023/10/22 00:54:25;;;;;;;7.93;7.60;;;13.30;36.00;;;;;;6123694;23;20906;-76
2023/10/22 00:56:51;;;;;;;7.23;6.93;;;13.30;35.60;;;;;;6124952;23;20181;-76
2023/10/22 00:59:18;;;;;;;7.23;6.83;;;13.20;35.90;;;;;;6124807;23;20417;-76
2023/10/22 01:01:44;;;;;;;6.83;6.63;;;13.20;35.80;;;;;;6125432;23;20374;-75
2023/10/22 01:04:10;;;;;;;6.40;6.20;;;13.30;35.00;;;;;;6125023;23;20797;-76
2023/10/22 01:06:36;;;;;;;7.07;6.57;;;13.20;35.30;;;;;;6125217;23;20666;-76
2023/10/22 01:09:02;;;;;;;7.43;7.13;;;13.20;35.70;;;;;;6124830;23;20760;-76
2023/10/22 01:11:27;;;;;;;7.47;7.17;;;13.10;35.70;;;;;;6125996;23;20410;-76
2023/10/22 01:13:53;;;;;;;7.10;6.80;;;13.10;35.80;;;;;;6124812;23;20178;-76
2023/10/22 01:16:37;;;;;;;7.70;7.40;;;13.10;35.50;;;;;;6123534;23;20273;-75
2023/10/22 01:19:03;;;;;;;7.70;7.40;;;13.10;36.00;;;;;;6123312;23;20230;-76
2023/10/22 01:21:29;;;;;;;7.73;7.33;;;13.20;35.10;;;;;;6124810;23;20448;-75
2023/10/22 01:23:55;;;;;;;7.57;7.17;;;13.10;35.10;;;;;;6125063;23;20146;-75
2023/10/22 01:26:20;;;;;;;7.70;7.37;;;13.10;34.90;;;;;;6148553;23;20459;-75
2023/10/22 01:28:46;;;;;;;7.40;7.10;;;13.10;35.10;;;;;;6153859;23;20833;-75
2023/10/22 01:31:16;;;;;;;7.07;6.77;;;13.10;35.30;;;;;;6154455;23;20164;-76
2023/10/22 01:33:42;;;;;;;7.00;6.77;;;13.10;34.90;;;;;;6153005;23;20623;-75
2023/10/22 01:36:07;;;;;;;7.57;7.27;;;13.00;34.90;;;;;;6154160;23;20397;-76
2023/10/22 01:38:33;;;;;;;7.40;7.10;;;13.00;34.70;;;;;;6154241;23;20149;-75
2023/10/22 01:40:58;;;;;;;7.13;6.83;;;12.90;35.10;;;;;;6154412;23;20210;-75
2023/10/22 01:43:24;;;;;;;7.40;7.00;;;13.00;35.30;;;;;;6152755;23;20592;-76
2023/10/22 01:45:49;;;;;;;6.83;6.53;;;13.00;34.80;;;;;;6154090;23;20170;-76
2023/10/22 01:48:15;;;;;;;6.83;6.63;;;13.00;34.50;;;;;;6154128;23;20245;-76
2023/10/22 01:50:40;;;;;;;7.10;6.90;;;13.10;34.90;;;;;;6154127;23;20232;-75
2023/10/22 01:53:07;;;;;;;7.17;6.87;;;13.00;34.40;;;;;;6128646;23;20488;-76
2023/10/22 01:55:33;;;;;;;7.43;7.13;;;13.00;35.00;;;;;;6128014;23;20253;-76
2023/10/22 01:57:58;;;;;;;7.27;6.97;;;12.90;34.80;;;;;;6154079;23;20385;-76
2023/10/22 02:00:24;;;;;;;7.80;7.40;;;12.90;34.80;;;;;;6154100;23;20638;-76
2023/10/22 02:02:49;;;;;;;7.60;7.30;;;13.00;34.70;;;;;;6154037;23;20665;-76
2023/10/22 02:05:15;;;;;;;7.63;7.33;;;12.90;34.80;;;;;;6127925;23;20173;-76
2023/10/22 02:07:40;;;;;;;7.50;7.20;;;12.80;35.00;;;;;;6128675;23;20212;-76
2023/10/22 02:10:08;;;;;;;7.87;7.47;;;12.80;35.40;;;;;;6155107;23;20150;-75
2023/10/22 02:12:34;;;;;;;6.90;6.70;;;12.70;35.10;;;;;;6155121;23;20153;-76
2023/10/22 02:14:59;;;;;;;7.80;7.40;;;12.70;35.20;;;;;;6155016;23;20459;-76
2023/10/22 02:17:25;;;;;;;7.83;7.53;;;12.70;35.00;;;;;;6154709;23;20153;-76
2023/10/22 02:19:50;;;;;;;7.17;6.97;;;12.70;35.30;;;;;;6128766;23;20181;-76
2023/10/22 02:22:16;;;;;;;7.97;7.37;;;12.80;34.80;;;;;;6154886;23;20603;-76
2023/10/22 02:24:42;;;;;;;6.87;6.57;;;12.70;34.80;;;;;;6154731;23;20193;-76
2023/10/22 02:27:08;;;;;;;7.90;7.50;;;12.70;34.60;;;;;;6154695;23;20138;-76
2023/10/22 02:29:34;;;;;;;6.80;6.60;;;12.80;34.00;;;;;;6154833;23;20427;-76
2023/10/22 02:31:59;;;;;;;6.97;6.67;;;12.70;34.50;;;;;;6155059;23;20208;-75
2023/10/22 02:34:25;;;;;;;7.50;7.10;;;12.60;34.20;;;;;;6154653;23;20350;-76
2023/10/22 02:36:50;;;;;;;7.00;6.70;;;12.60;33.80;;;;;;6128375;23;20498;-76
2023/10/22 02:39:16;;;;;;;6.60;6.40;;;12.70;33.90;;;;;;6154661;23;20627;-76
2023/10/22 02:41:44;;;;;;;6.93;6.63;;;12.60;33.80;;;;;;6128625;23;20153;-76
2023/10/22 02:44:09;;;;;;;7.50;7.20;;;12.60;34.00;;;;;;6154597;23;20157;-76
2023/10/22 02:46:35;;;;;;;7.13;6.80;;;12.60;34.40;;;;;;6128489;23;20476;-76
2023/10/22 02:49:01;;;;;;;6.90;6.70;;;12.60;34.50;;;;;;6154420;23;20604;-76
2023/10/22 02:51:26;;;;;;;6.70;6.30;;;12.60;34.50;;;;;;6155026;23;20653;-76
2023/10/22 02:53:52;;;;;;;7.43;7.13;;;12.70;34.30;;;;;;6154694;23;20408;-76
2023/10/22 02:56:18;;;;;;;6.83;6.53;;;12.60;34.50;;;;;;6128438;23;20735;-76
2023/10/22 02:58:43;;;;;;;6.80;6.40;;;12.60;34.60;;;;;;6154090;23;20228;-75
2023/10/22 03:01:10;;;;;;;6.83;6.43;;;12.60;34.60;;;;;;6154584;23;20146;-76
2023/10/22 03:03:39;;;;;;;6.70;6.40;;;12.60;34.50;;;;;;6154458;23;20168;-76
2023/10/22 03:06:09;;;;;;;6.70;6.40;;;12.50;35.00;;;;;;6154550;23;20517;-76
2023/10/22 03:08:37;;;;;;;7.07;6.83;;;12.50;34.90;;;;;;6154143;23;20379;-76
2023/10/22 03:11:03;;;;;;;7.33;6.93;;;12.50;35.20;;;;;;6154393;23;20373;-76
2023/10/22 03:13:29;;;;;;;6.53;6.33;;;12.60;35.10;;;;;;6128387;23;20841;-76
2023/10/22 03:15:55;;;;;;;7.70;7.30;;;12.70;35.30;;;;;;6154240;23;20259;-76
2023/10/22 03:18:21;;;;;;;7.03;6.70;;;12.80;34.00;;;;;;6154268;23;20157;-75
2023/10/22 03:20:46;;;;;;;7.37;7.07;;;12.80;34.00;;;;;;6128125;23;20915;-76
2023/10/22 03:23:12;;;;;;;7.07;6.77;;;12.80;34.00;;;;;;6154299;23;20376;-76
2023/10/22 03:25:39;;;;;;;7.37;6.87;;;12.70;33.90;;;;;;6154099;23;20563;-76
2023/10/22 03:28:06;;;;;;;7.03;6.67;;;12.70;34.30;;;;;;6154012;23;20456;-76
2023/10/22 03:30:36;;;;;;;8.07;7.70;;;12.70;34.40;;;;;;6154677;23;20387;-76
2023/10/22 03:33:02;;;;;;;7.50;7.10;;;12.60;34.40;;;;;;6154267;23;20424;-76
2023/10/22 03:35:27;;;;;;;6.97;6.77;;;12.60;34.60;;;;;;6153997;23;20404;-75
2023/10/22 03:37:52;;;;;;;7.67;7.40;;;12.70;34.80;;;;;;6153964;23;20150;-76
2023/10/22 03:40:19;;;;;;;7.30;7.00;;;12.70;34.50;;;;;;6153944;23;20627;-75
2023/10/22 03:42:45;;;;;;;7.27;6.97;;;12.70;34.50;;;;;;6128138;23;20626;-76
2023/10/22 03:45:10;;;;;;;7.40;7.10;;;12.70;34.00;;;;;;6127887;23;20432;-76
2023/10/22 03:47:36;;;;;;;7.47;7.10;;;12.80;34.00;;;;;;6153913;23;20146;-76
2023/10/22 03:50:02;;;;;;;7.27;6.97;;;12.70;33.90;;;;;;6154180;23;20153;-76
2023/10/22 03:52:27;;;;;;;8.27;7.87;;;12.70;33.90;;;;;;6154053;23;20154;-76
2023/10/22 03:54:53;;;;;;;6.70;6.50;;;12.70;33.90;;;;;;6128183;23;20180;-75
2023/10/22 03:57:18;;;;;;;7.60;7.30;;;12.70;33.90;;;;;;6153911;23;20149;-76
2023/10/22 03:59:44;;;;;;;7.47;7.17;;;12.60;33.80;;;;;;6154088;23;20177;-76
2023/10/22 04:02:09;;;;;;;7.13;6.73;;;12.60;34.20;;;;;;6128055;23;20228;-76
2023/10/22 04:04:35;;;;;;;7.70;7.40;;;12.50;34.30;;;;;;6153954;23;20552;-76
2023/10/22 04:07:02;;;;;;;7.50;7.20;;;12.50;34.90;;;;;;6153789;23;20526;-75
2023/10/22 04:09:29;;;;;;;7.07;6.77;;;12.40;35.20;;;;;;6154985;23;20208;-75
2023/10/22 04:11:55;;;;;;;6.90;6.60;;;12.40;35.60;;;;;;6156269;23;20459;-75
2023/10/22 04:14:21;;;;;;;6.20;6.00;;;12.40;35.60;;;;;;6156285;23;20859;-75
2023/10/22 04:16:49;;;;;;;7.27;7.00;;;12.40;35.60;;;;;;6156551;23;20456;-76
2023/10/22 04:19:15;;;;;;;7.17;6.87;;;12.40;35.40;;;;;;6156407;23;20304;-75
2023/10/22 04:21:41;;;;;;;7.50;7.03;;;12.50;35.00;;;;;;6130053;23;20412;-75
2023/10/22 04:24:07;;;;;;;7.10;6.80;;;12.50;34.40;;;;;;6156182;23;20152;-76
2023/10/22 04:26:33;;;;;;;6.50;6.30;;;12.60;34.20;;;;;;6155881;23;20417;-76
2023/10/22 04:28:58;;;;;;;7.10;6.80;;;12.60;33.80;;;;;;6155884;23;20377;-76
2023/10/22 04:31:24;;;;;;;6.50;6.27;;;12.60;33.80;;;;;;6156169;23;20158;-75
2023/10/22 04:33:49;;;;;;;6.93;6.60;;;12.60;33.80;;;;;;6130016;23;20164;-76
2023/10/22 04:36:16;;;;;;;7.90;7.60;;;12.60;33.80;;;;;;6156018;23;20185;-76
2023/10/22 04:38:42;;;;;;;7.63;7.23;;;12.60;33.80;;;;;;6155820;23;20153;-76
2023/10/22 04:41:11;;;;;;;7.53;7.23;;;12.60;33.80;;;;;;6155913;23;20868;-76
2023/10/22 04:43:37;;;;;;;7.20;6.87;;;12.50;34.40;;;;;;6155951;23;20530;-76
2023/10/22 04:46:02;;;;;;;7.30;7.00;;;12.60;33.80;;;;;;6156030;23;20432;-75
2023/10/22 04:48:28;;;;;;;7.17;6.97;;;12.60;33.80;;;;;;6155236;23;20153;-75
2023/10/22 04:50:55;;;;;;;7.13;6.83;;;12.60;33.80;;;;;;6156818;23;20150;-75
2023/10/22 04:53:20;;;;;;;7.50;7.10;;;12.60;33.40;;;;;;6155902;23;20236;-76
2023/10/22 04:55:56;;;;;;;7.37;7.00;;;12.60;33.80;;;;;;6155844;23;20393;-75
2023/10/22 04:58:22;;;;;;;6.50;6.30;;;12.50;33.40;;;;;;6129725;23;20541;-76
2023/10/22 05:00:47;;;;;;;6.47;6.27;;;12.50;33.40;;;;;;6129991;23;20432;-75
2023/10/22 05:03:13;;;;;;;7.07;6.77;;;12.50;34.10;;;;;;6156125;23;20718;-75
2023/10/22 05:05:39;;;;;;;7.20;6.90;;;12.50;33.30;;;;;;6155922;23;20165;-75
2023/10/22 05:08:05;;;;;;;7.57;7.27;;;12.50;32.90;;;;;;6156240;23;20145;-76
2023/10/22 05:10:38;;;;;;;6.50;6.20;;;12.50;33.00;;;;;;6155516;23;20281;-76
2023/10/22 05:13:03;;;;;;;6.60;6.40;;;12.50;33.20;;;;;;6155877;23;20365;-76
2023/10/22 05:15:29;;;;;;;7.00;6.67;;;12.40;33.10;;;;;;6155477;23;20745;-76
2023/10/22 05:17:56;;;;;;;7.17;6.93;;;12.50;33.40;;;;;;6155250;23;20233;-76
2023/10/22 05:20:22;;;;;;;7.70;7.30;;;12.40;32.40;;;;;;6154838;23;20616;-76
2023/10/22 05:22:48;;;;;;;7.10;6.80;;;12.50;32.50;;;;;;6155253;23;20384;-76
2023/10/22 05:25:14;;;;;;;7.63;7.33;;;12.50;32.30;;;;;;6155296;23;20181;-75
2023/10/22 05:27:39;;;;;;;6.53;6.33;;;12.50;32.00;;;;;;6155249;23;20371;-76
2023/10/22 05:30:06;;;;;;;7.10;6.80;;;12.50;31.60;;;;;;6155593;23;20463;-76
2023/10/22 05:32:31;;;;;;;6.93;6.53;;;12.50;30.90;;;;;;6155669;23;20160;-76
2023/10/22 05:34:57;;;;;;;6.93;6.63;;;12.50;31.10;;;;;;6155630;23;20401;-76
2023/10/22 05:37:22;;;;;;;6.80;6.50;;;12.50;30.40;;;;;;6154751;23;20149;-77
2023/10/22 05:39:48;;;;;;;7.40;6.73;;;12.60;30.00;;;;;;6128855;23;20624;-77
2023/10/22 05:42:14;;;;;;;6.57;6.20;;;12.50;29.70;;;;;;6155399;23;20149;-76
2023/10/22 05:44:39;;;;;;;7.37;7.03;;;12.50;29.40;;;;;;6129288;23;20174;-76
2023/10/22 05:47:05;;;;;;;8.00;6.13;;;12.50;29.50;;;;;;6129007;23;20204;-76
2023/10/22 05:49:31;;;;;;;7.43;7.00;;;12.60;29.30;;;;;;6129057;23;20162;-76
2023/10/22 05:51:56;;;;;;;7.13;6.80;;;12.50;29.20;;;;;;6155308;23;20154;-76
2023/10/22 05:54:22;;;;;;;7.23;6.93;;;12.50;29.40;;;;;;6155135;23;20234;-76
2023/10/22 05:56:47;;;;;;;7.77;6.87;;;12.50;28.90;;;;;;6155166;23;20494;-76
2023/10/22 05:59:13;;;;;;;7.17;6.67;;;12.50;28.90;;;;;;6128547;23;20177;-76
2023/10/22 06:01:41;;;;;;;7.10;6.70;;;12.50;29.10;;;;;;6155523;23;20146;-76
2023/10/22 06:04:07;;;;;;;6.70;6.40;;;12.50;28.80;;;;;;6155414;23;20173;-76
2023/10/22 06:06:32;;;;;;;7.37;6.90;;;12.40;28.60;;;;;;6154921;23;20745;-76
2023/10/22 06:08:58;;;;;;;8.80;8.10;;;12.40;28.50;;;;;;6154874;23;20373;-76
2023/10/22 06:11:23;;;;;;;7.87;7.47;;;12.40;28.20;;;;;;6129005;23;20154;-76
2023/10/22 06:13:49;;;;;;;7.93;7.33;;;12.40;28.20;;;;;;6128988;23;20615;-76
2023/10/22 06:16:15;;;;;;;7.07;6.47;;;12.40;28.20;;;;;;6154837;23;20662;-77
2023/10/22 06:18:40;;;;;;;6.77;6.47;;;12.40;28.30;;;;;;6154347;23;20153;-76
2023/10/22 06:21:12;;;;;;;7.80;7.17;;;12.40;28.30;;;;;;6154771;23;20181;-77
2023/10/22 06:23:38;;;;;;;7.37;6.67;;;12.40;28.20;;;;;;6154418;23;20149;-76
2023/10/22 06:26:04;;;;;;;7.33;6.90;;;12.40;28.40;;;;;;6154502;23;20749;-76
2023/10/22 06:28:30;;;;;;;7.40;7.10;;;12.50;28.40;;;;;;6154550;23;20592;-75
2023/10/22 06:31:05;;;;;;;6.40;6.10;;;12.50;28.50;;;;;;6154310;23;20431;-75
2023/10/22 06:33:32;;;;;;;7.17;6.77;;;12.50;28.10;;;;;;6154113;23;20176;-76
2023/10/22 06:35:58;;;;;;;8.17;7.07;;;12.60;28.10;;;;;;6154493;23;20405;-75
2023/10/22 06:38:23;;;;;;;6.20;5.83;;;12.50;27.90;;;;;;6154533;23;20867;-76
2023/10/22 06:40:49;;;;;;;5.90;5.57;;;12.50;27.90;;;;;;6154844;23;20192;-75
2023/10/22 06:43:14;;;;;;;7.83;7.33;;;12.50;28.70;;;;;;6155048;23;20173;-74
2023/10/22 06:45:40;;;;;;;6.40;6.00;;;12.50;28.30;;;;;;6154771;23;20208;-76
2023/10/22 06:48:06;;;;;;;6.87;6.53;;;12.50;28.20;;;;;;6154489;23;20260;-76
2023/10/22 06:50:32;;;;;;;7.17;6.87;;;12.60;28.00;;;;;;6154855;23;20157;-77
2023/10/22 06:52:57;;;;;;;6.53;6.13;;;12.60;28.10;;;;;;6129303;23;20399;-75
2023/10/22 06:55:23;;;;;;;7.57;7.17;;;12.70;28.00;;;;;;6129276;23;20321;-76
2023/10/22 06:57:48;;;;;;;7.07;6.70;;;12.70;27.60;;;;;;6129575;23;20192;-77
2023/10/22 07:00:14;;;;;;;7.10;6.80;;;12.80;27.80;;;;;;6155228;23;20169;-77
2023/10/22 07:02:39;;;;;;;7.50;7.00;;;12.80;27.70;;;;;;6128145;23;20153;-76
2023/10/22 07:05:10;;;;;;;7.70;7.30;;;12.80;27.80;;;;;;6151450;23;20475;-76
2023/10/22 07:07:41;;;;;;;7.50;7.20;;;12.80;27.60;;;;;;6127921;23;20141;-76
2023/10/22 07:10:07;;;;;;;7.70;7.30;;;12.80;27.80;;;;;;6155015;23;20416;-75
2023/10/22 07:12:33;;;;;;;6.87;6.53;;;12.80;27.70;;;;;;6155087;23;20380;-76
2023/10/22 07:14:58;;;;;;;8.07;7.67;;;12.90;27.30;;;;;;6155084;23;20397;-76
2023/10/22 07:17:24;;;;;;;7.30;6.80;;;12.80;27.00;;;;;;6155216;23;20221;-76
2023/10/22 07:19:49;;;;;;;8.33;8.00;;;12.90;26.90;;;;;;6155738;23;20606;-76
2023/10/22 07:22:15;;;;;;;7.00;6.70;;;13.00;26.80;;;;;;6129126;23;20600;-76
2023/10/22 07:24:40;;;;;;;6.87;6.47;;;13.00;26.80;;;;;;6155245;23;20177;-75
2023/10/22 07:27:06;;;;;;;6.93;6.63;;;13.10;26.50;;;;;;6157655;23;20149;-76
2023/10/22 07:29:31;;;;;;;8.30;7.90;;;13.10;26.40;;;;;;6159973;23;20212;-75
2023/10/22 07:31:57;;;;;;;9.13;7.53;;;13.20;26.20;;;;;;6170455;23;20169;-76
2023/10/22 07:34:22;;;;;;;6.63;6.33;;;13.20;26.10;;;;;;6161852;23;20153;-76
2023/10/22 07:36:48;;;;;;;7.30;6.80;;;13.30;26.00;;;;;;6158841;23;20471;-76
2023/10/22 07:39:13;;;;;;;7.33;6.93;;;13.30;25.60;;;;;;6155552;23;20188;-76
2023/10/22 07:41:39;;;;;;;8.00;7.30;;;13.30;25.90;;;;;;6129423;23;20227;-76
2023/10/22 07:44:05;;;;;;;7.90;7.30;;;13.30;25.40;;;;;;6155275;23;20612;-76
2023/10/22 07:46:30;;;;;;;7.83;7.27;;;13.40;25.50;;;;;;6154940;23;20173;-76
2023/10/22 07:48:56;;;;;;;6.90;6.50;;;13.40;25.30;;;;;;6154994;23;20173;-76
2023/10/22 07:51:24;;;;;;;7.20;7.00;;;13.50;25.60;;;;;;6154863;23;20180;-76
2023/10/22 07:53:49;;;;;;;7.30;7.00;;;13.50;25.20;;;;;;6155056;23;20153;-76
2023/10/22 07:56:18;;;;;;;6.90;6.50;;;13.60;25.40;;;;;;6154820;23;20393;-77
2023/10/22 07:58:43;;;;;;;6.80;6.40;;;13.60;24.90;;;;;;6128321;23;20603;-77
2023/10/22 08:01:09;;;;;;;6.87;6.30;;;13.60;25.00;;;;;;6154597;23;20429;-77
2023/10/22 08:03:35;;;;;;;6.70;6.30;;;13.60;24.90;;;;;;6154900;23;20362;-77
2023/10/22 08:06:02;;;;;;;7.00;6.40;;;13.60;24.70;;;;;;6154766;23;20698;-77
2023/10/22 08:08:28;;;;;;;6.43;6.03;;;13.60;24.80;;;;;;6154901;23;20171;-76
2023/10/22 08:10:58;;;;;;;7.13;6.63;;;13.70;24.90;;;;;;6155048;23;20369;-76
2023/10/22 08:13:23;;;;;;;6.17;5.97;;;13.70;24.60;;;;;;6128973;23;20381;-77
2023/10/22 08:15:49;;;;;;;6.80;6.20;;;13.70;24.60;;;;;;6154491;23;20751;-76
2023/10/22 08:18:15;;;;;;;7.37;6.67;;;13.80;24.20;;;;;;6154549;23;20157;-77
2023/10/22 08:20:41;;;;;;;5.80;5.50;;;13.80;24.20;;;;;;6154387;23;20444;-76
2023/10/22 08:23:07;;;;;;;5.77;5.37;;;13.90;23.80;;;;;;6154318;23;20152;-76
2023/10/22 08:25:32;;;;;;;6.57;6.07;;;13.90;24.00;;;;;;6123175;23;20189;-76
2023/10/22 08:27:58;;;;;;;9.40;6.30;;;14.00;23.70;;;;;;6125456;23;20384;-76
2023/10/22 08:30:24;;;;;;;6.50;6.20;;;14.00;23.30;;;;;;6125165;23;20158;-76
2023/10/22 08:32:50;;;;;;;6.10;5.60;;;14.00;23.60;;;;;;6123358;23;20525;-77
2023/10/22 08:35:16;;;;;;;6.40;6.00;;;14.00;23.40;;;;;;6124853;23;20178;-76
2023/10/22 08:37:41;;;;;;;5.90;5.60;;;14.10;23.20;;;;;;6124929;23;20445;-76
2023/10/22 08:40:11;;;;;;;5.50;5.30;;;14.20;23.00;;;;;;6125221;23;20194;-76
2023/10/22 08:42:37;;;;;;;6.60;6.10;;;14.20;22.60;;;;;;6124987;23;20527;-76
2023/10/22 08:45:04;;;;;;;6.13;5.93;;;14.20;22.60;;;;;;6125086;23;20397;-76
2023/10/22 08:47:30;;;;;;;6.40;6.00;;;14.30;22.70;;;;;;6124853;23;20839;-76
2023/10/22 08:49:57;;;;;;;6.80;6.13;;;14.30;22.50;;;;;;6124973;23;20386;-76
2023/10/22 08:52:23;;;;;;;6.37;5.97;;;14.40;22.30;;;;;;6124983;23;20785;-76
2023/10/22 08:54:48;;;;;;;7.00;6.40;;;14.50;22.10;;;;;;6124527;23;20401;-76
2023/10/22 08:57:22;;;;;;;6.60;6.20;;;14.60;22.20;;;;;;6125947;23;20481;-76
2023/10/22 08:59:48;;;;;;;5.40;5.10;;;14.50;21.80;;;;;;6125330;23;20174;-76
2023/10/22 09:02:27;;;;;;;5.70;5.37;;;14.60;21.70;;;;;;6127183;23;20689;-77
2023/10/22 09:04:53;;;;;;;5.70;5.40;;;14.70;21.40;;;;;;6126844;23;20392;-77
2023/10/22 09:07:39;;;;;;;5.77;5.40;;;14.80;21.60;;;;;;6126548;23;20457;-77
2023/10/22 09:10:22;;;;;;;5.70;5.30;;;15.00;20.80;;;;;;6126886;23;20382;-77
2023/10/22 09:12:47;;;;;;;6.40;5.90;;;15.10;20.60;;;;;;6125281;23;20396;-77
2023/10/22 09:15:13;;;;;;;5.97;5.47;;;15.10;20.40;;;;;;6126983;23;20425;-77
2023/10/22 09:17:38;;;;;;;8.57;5.60;;;15.10;20.30;;;;;;6125532;23;20185;-77
2023/10/22 09:20:20;;;;;;;5.90;5.40;;;15.20;20.20;;;;;;6126757;23;20178;-77
2023/10/22 09:22:46;;;;;;;5.80;5.43;;;15.20;20.00;;;;;;6126877;23;20209;-77
2023/10/22 09:25:12;;;;;;;6.13;5.90;;;15.10;20.00;;;;;;6124958;23;20860;-77
2023/10/22 09:27:40;;;;;;;4.97;4.77;;;15.10;20.30;;;;;;6125292;23;20165;-77
2023/10/22 09:30:06;;;;;;;5.20;4.80;;;15.00;20.30;;;;;;6125422;23;20162;-77
2023/10/22 09:32:32;;;;;;;6.47;6.07;;;15.10;20.30;;;;;;6128342;23;20435;-78
2023/10/22 09:35:14;;;;;;;5.70;5.40;;;15.20;20.20;;;;;;6126927;23;20417;-77
2023/10/22 09:37:49;;;;;;;5.73;5.43;;;15.20;19.90;;;;;;6127611;23;20174;-77
2023/10/22 09:40:22;;;;;;;6.80;6.20;;;15.10;19.80;;;;;;6127919;23;20492;-77
2023/10/22 09:42:51;;;;;;;5.60;5.30;;;15.10;19.80;;;;;;6126462;23;20382;-77
2023/10/22 09:45:23;;;;;;;6.00;5.50;;;15.10;20.40;;;;;;6128199;23;20401;-77
2023/10/22 09:47:53;;;;;;;5.90;5.50;;;15.20;20.00;;;;;;6127054;23;20392;-77
2023/10/22 09:50:21;;;;;;;6.70;6.30;;;15.20;19.90;;;;;;6126204;23;20947;-77
2023/10/22 09:52:50;;;;;;;8.43;7.83;;;15.20;20.10;;;;;;6127109;23;20444;-77
2023/10/22 09:55:17;;;;;;;6.30;5.80;;;15.20;20.30;;;;;;6128290;23;20802;-76
2023/10/22 09:57:45;;;;;;;6.73;6.23;;;15.30;20.70;;;;;;6126365;23;20381;-77
2023/10/22 10:00:12;;;;;;;5.20;4.90;;;15.40;19.60;;;;;;6129331;23;20529;-77
2023/10/22 10:02:40;;;;;;;6.10;5.60;;;15.50;19.10;;;;;;6130066;23;20416;-78
2023/10/22 10:05:09;;;;;;;5.60;5.20;;;15.60;19.40;;;;;;6132959;23;20400;-77
2023/10/22 10:07:37;;;;;;;6.17;5.70;;;15.60;18.70;;;;;;6133166;23;20527;-77
2023/10/22 10:10:05;;;;;;;5.57;5.10;;;15.60;18.70;;;;;;6132214;23;20397;-78
2023/10/22 10:12:31;;;;;;;7.97;5.10;;;15.70;18.80;;;;;;6131085;23;20374;-77
2023/10/22 10:14:57;;;;;;;8.50;7.97;;;15.70;18.30;;;;;;6132621;23;20409;-77
2023/10/22 10:17:23;;;;;;;5.40;5.00;;;15.80;18.30;;;;;;6131770;23;20382;-77
2023/10/22 10:19:48;;;;;;;6.03;5.50;;;15.80;18.20;;;;;;6133772;23;20608;-77
2023/10/22 10:22:36;;;;;;;5.53;5.23;;;15.90;18.40;;;;;;6132638;23;20501;-77
2023/10/22 10:25:28;;;;;;;5.07;4.77;;;16.00;18.40;;;;;;6125529;23;20186;-77
2023/10/22 10:27:54;;;;;;;6.47;6.07;;;16.00;18.20;;;;;;6124475;23;20378;-77
2023/10/22 10:30:22;;;;;;;6.40;6.00;;;16.00;18.00;;;;;;6124270;23;20389;-77
2023/10/22 10:32:51;;;;;;;5.83;5.43;;;15.90;18.90;;;;;;6126451;23;20186;-75
2023/10/22 10:35:18;;;;;;;5.73;5.27;;;16.00;18.30;;;;;;6125875;23;20398;-76
2023/10/22 10:38:13;;;;;;;9.50;8.80;;;16.00;18.20;;;;;;6124817;23;20385;-75
2023/10/22 10:40:46;;;;;;;5.53;5.17;;;16.10;18.80;;;;;;6125887;23;20481;-76
2023/10/22 10:43:12;;;;;;;5.90;5.30;;;16.10;17.60;;;;;;6125658;23;20377;-76
2023/10/22 10:46:16;;;;;;;5.00;4.60;;;16.00;17.60;;;;;;6125856;23;20904;-76
2023/10/22 10:48:47;;;;;;;5.73;5.20;;;15.90;17.50;;;;;;6125962;23;20409;-77
2023/10/22 10:51:21;;;;;;;6.47;5.97;;;16.00;17.50;;;;;;6126571;23;20377;-75
2023/10/22 10:54:07;;;;;;;5.53;4.77;;;16.00;16.90;;;;;;6124537;23;20397;-75
2023/10/22 10:56:52;;;;;;;5.10;4.70;;;16.00;16.90;;;;;;6125069;23;20406;-75
2023/10/22 10:59:31;;;;;;;6.00;5.10;;;15.90;16.60;;;;;;6125281;23;20413;-75
2023/10/22 11:01:59;;;;;;;5.90;5.43;;;16.00;16.60;;;;;;6125531;23;20464;-75
2023/10/22 11:04:25;;;;;;;5.37;4.97;;;16.00;16.40;;;;;;6125226;23;20579;-76
2023/10/22 11:06:50;;;;;;;6.47;5.13;;;16.00;16.10;;;;;;6125505;23;20386;-76
2023/10/22 11:09:16;;;;;;;6.53;5.97;;;16.00;16.00;;;;;;6124043;23;20533;-76
2023/10/22 11:12:03;;;;;;;5.57;5.07;;;16.00;16.40;;;;;;6124256;23;20164;-75
2023/10/22 11:14:30;;;;;;;5.10;4.70;;;16.00;15.90;;;;;;6124849;23;20130;-75
2023/10/22 11:16:59;;;;;;;4.53;4.33;;;16.10;15.80;;;;;;6122856;23;20923;-75
2023/10/22 11:19:26;;;;;;;5.70;4.80;;;16.10;15.10;;;;;;6124278;23;20496;-77
2023/10/22 11:21:56;;;;;;;4.77;4.50;;;16.20;15.10;;;;;;6126112;23;20386;-77
2023/10/22 11:24:27;;;;;;;9.40;4.93;;;16.30;14.60;;;;;;6125267;23;20389;-78
2023/10/22 11:26:53;;;;;;;6.10;5.70;;;16.30;13.80;;;;;;6124357;23;20386;-77
2023/10/22 11:29:19;;;;;;;4.43;4.13;;;16.40;12.90;;;;;;6125045;23;20366;-76
2023/10/22 11:31:59;;;;;;;5.40;5.00;;;16.30;12.90;;;;;;6123090;23;20484;-76
2023/10/22 11:34:26;;;;;;;5.90;4.10;;;16.40;12.70;;;;;;6124869;23;20933;-76
2023/10/22 11:37:00;;;;;;;6.10;5.70;;;16.30;12.00;;;;;;6125366;23;20385;-76
2023/10/22 11:39:36;;;;;;;6.10;5.23;;;16.40;12.70;;;;;;6124892;23;20483;-76
2023/10/22 11:42:03;;;;;;;5.87;4.50;;;16.40;12.60;;;;;;6124850;23;20711;-76
2023/10/22 11:44:35;;;;;;;4.93;4.63;;;16.40;13.20;;;;;;6125660;23;20398;-77
2023/10/22 11:47:24;;;;;;;5.10;4.63;;;16.50;12.70;;;;;;6123992;23;20418;-77
2023/10/22 11:49:51;;;;;;;4.20;3.90;;;16.60;12.10;;;;;;6130921;23;20444;-76
2023/10/22 11:52:36;;;;;;;4.17;3.70;;;16.70;12.20;;;;;;6123843;23;20899;-77
2023/10/22 11:55:02;;;;;;;4.83;4.53;;;16.80;11.50;;;;;;6124092;23;20760;-77
2023/10/22 11:57:28;;;;;;;4.00;3.70;;;16.90;11.60;;;;;;6123610;23;20393;-77
2023/10/22 11:59:54;;;;;;;5.00;4.50;;;17.00;11.00;;;;;;6125148;23;20752;-77
2023/10/22 12:02:19;;;;;;;4.97;4.57;;;17.00;11.10;;;;;;6123980;23;20184;-77
2023/10/22 12:04:47;;;;;;;5.23;4.73;;;17.00;11.10;;;;;;6125422;23;20220;-77
2023/10/22 12:07:12;;;;;;;4.53;4.23;;;17.00;11.50;;;;;;6123666;23;20381;-77
2023/10/22 12:09:39;;;;;;;6.13;5.00;;;16.90;11.50;;;;;;6125568;23;20378;-77
2023/10/22 12:12:05;;;;;;;3.67;3.47;;;16.80;11.20;;;;;;6148291;23;20648;-77
2023/10/22 12:14:31;;;;;;;5.50;4.63;;;16.80;11.40;;;;;;6124603;23;20385;-77
2023/10/22 12:16:57;;;;;;;4.80;4.50;;;16.90;11.00;;;;;;6124378;23;20709;-77
2023/10/22 12:19:22;;;;;;;4.57;4.20;;;16.90;11.00;;;;;;6126068;23;20648;-77
2023/10/22 12:21:49;;;;;;;5.50;5.10;;;17.00;11.00;;;;;;6124272;23;20150;-77
2023/10/22 12:24:14;;;;;;;5.20;4.90;;;17.00;11.10;;;;;;6125169;23;20158;-76
2023/10/22 12:26:40;;;;;;;5.93;5.47;;;17.10;10.80;;;;;;6152831;23;20544;-76
2023/10/22 12:29:05;;;;;;;5.57;5.00;;;17.10;10.50;;;;;;6128350;23;20470;-77
2023/10/22 12:31:31;;;;;;;5.40;5.00;;;17.10;11.10;;;;;;6156178;23;20152;-77
2023/10/22 12:33:57;;;;;;;4.80;4.10;;;17.10;10.40;;;;;;6156601;23;20156;-77
2023/10/22 12:36:22;;;;;;;5.27;4.77;;;17.10;10.00;;;;;;6156876;23;20738;-77
2023/10/22 12:38:48;;;;;;;4.47;4.07;;;17.10;10.90;;;;;;6130571;23;20212;-77
2023/10/22 12:41:13;;;;;;;4.77;4.37;;;17.10;10.80;;;;;;6156303;23;20177;-77
2023/10/22 12:43:39;;;;;;;3.90;3.50;;;17.20;11.20;;;;;;6130249;23;20154;-77
2023/10/22 12:46:04;;;;;;;4.90;4.50;;;17.20;10.80;;;;;;6156667;23;20174;-77
2023/10/22 12:48:30;;;;;;;6.07;5.57;;;17.30;10.90;;;;;;6130646;23;20157;-77